Magra, California
Current Conditions -  °F | °C
As of 2:00 PM on Monday 24 Nov 2014 (Local Time) from KGOO Reporting Station
Clear Clear  
Wind Chill: 59°   Ceiling: Unl
Heat Index: 59°   Visibility: 10mi
Dew Point: 28°   Wind: 7mph
Humidity: 31%   Direction: 290°WNW
Pressure: 30.37"   Gusts: NA
Location:  39.1673°N, 120.867°W
Report Text: KGOO 242200Z AUTO 29006KT 10SM CLR 15/M02 A3037 RMK AO1
Loading
Personal Weather Stations






























Interactive Weather Map New forecast layout! Learn more

10-Day Weather Forecast

Advertisements
Track Severe Weather on mobile